sensor_id;sensor_type;location;lat;lon;timestamp;P1;durP1;ratioP1;P2;durP2;ratioP2
41514;SDS011;27247;48.020;16.720;2022-10-31T00:02:00;59.15;;;26.80;;
41514;SDS011;27247;48.020;16.720;2022-10-31T00:06:10;68.00;;;27.58;;
41514;SDS011;27247;48.020;16.720;2022-10-31T00:10:21;68.25;;;25.20;;
41514;SDS011;27247;48.020;16.720;2022-10-31T00:14:31;57.00;;;25.93;;
41514;SDS011;27247;48.020;16.720;2022-10-31T00:18:41;56.17;;;25.40;;
41514;SDS011;27247;48.020;16.720;2022-10-31T00:22:51;59.40;;;25.85;;
41514;SDS011;27247;48.020;16.720;2022-10-31T00:27:02;63.10;;;27.63;;
41514;SDS011;27247;48.020;16.720;2022-10-31T00:31:12;60.03;;;26.35;;
41514;SDS011;27247;48.020;16.720;2022-10-31T00:35:23;66.88;;;26.35;;
41514;SDS011;27247;48.020;16.720;2022-10-31T00:39:34;68.10;;;25.90;;
41514;SDS011;27247;48.020;16.720;2022-10-31T00:43:44;57.00;;;24.30;;
41514;SDS011;27247;48.020;16.720;2022-10-31T00:47:55;58.40;;;24.23;;
41514;SDS011;27247;48.020;16.720;2022-10-31T00:52:05;49.50;;;23.60;;
41514;SDS011;27247;48.020;16.720;2022-10-31T00:56:15;95.93;;;28.02;;
41514;SDS011;27247;48.020;16.720;2022-10-31T01:00:26;63.43;;;27.47;;
41514;SDS011;27247;48.020;16.720;2022-10-31T01:04:36;70.35;;;27.67;;
41514;SDS011;27247;48.020;16.720;2022-10-31T01:08:47;58.50;;;25.53;;
41514;SDS011;27247;48.020;16.720;2022-10-31T01:12:58;71.55;;;25.90;;
41514;SDS011;27247;48.020;16.720;2022-10-31T01:17:08;57.37;;;24.30;;
41514;SDS011;27247;48.020;16.720;2022-10-31T01:21:20;49.77;;;23.30;;
41514;SDS011;27247;48.020;16.720;2022-10-31T01:25:32;59.85;;;24.40;;
41514;SDS011;27247;48.020;16.720;2022-10-31T01:29:42;57.43;;;25.67;;
41514;SDS011;27247;48.020;16.720;2022-10-31T01:33:53;55.63;;;23.53;;
41514;SDS011;27247;48.020;16.720;2022-10-31T01:38:04;55.42;;;23.88;;
41514;SDS011;27247;48.020;16.720;2022-10-31T01:42:15;59.13;;;24.70;;
41514;SDS011;27247;48.020;16.720;2022-10-31T01:50:44;46.22;;;22.83;;
41514;SDS011;27247;48.020;16.720;2022-10-31T01:54:58;53.88;;;23.85;;
41514;SDS011;27247;48.020;16.720;2022-10-31T01:59:12;50.25;;;22.25;;
41514;SDS011;27247;48.020;16.720;2022-10-31T02:03:27;57.65;;;23.55;;
41514;SDS011;27247;48.020;16.720;2022-10-31T02:07:41;43.08;;;21.25;;
41514;SDS011;27247;48.020;16.720;2022-10-31T02:11:56;56.75;;;23.33;;
41514;SDS011;27247;48.020;16.720;2022-10-31T02:16:09;52.13;;;23.88;;
41514;SDS011;27247;48.020;16.720;2022-10-31T02:20:20;52.28;;;25.17;;
41514;SDS011;27247;48.020;16.720;2022-10-31T02:33:57;54.63;;;24.42;;
41514;SDS011;27247;48.020;16.720;2022-10-31T02:42:51;50.20;;;26.10;;
41514;SDS011;27247;48.020;16.720;2022-10-31T02:47:14;54.47;;;26.00;;
41514;SDS011;27247;48.020;16.720;2022-10-31T02:51:27;45.72;;;21.95;;
41514;SDS011;27247;48.020;16.720;2022-10-31T02:59:49;42.23;;;22.43;;
41514;SDS011;27247;48.020;16.720;2022-10-31T03:08:30;46.03;;;22.55;;
41514;SDS011;27247;48.020;16.720;2022-10-31T03:13:20;43.50;;;21.77;;
41514;SDS011;27247;48.020;16.720;2022-10-31T03:17:37;38.33;;;21.45;;
41514;SDS011;27247;48.020;16.720;2022-10-31T03:22:16;45.80;;;21.55;;
41514;SDS011;27247;48.020;16.720;2022-10-31T03:26:30;37.27;;;19.10;;
41514;SDS011;27247;48.020;16.720;2022-10-31T03:30:43;40.30;;;20.02;;
41514;SDS011;27247;48.020;16.720;2022-10-31T03:34:56;41.17;;;22.48;;
41514;SDS011;27247;48.020;16.720;2022-10-31T03:39:12;38.80;;;20.00;;
41514;SDS011;27247;48.020;16.720;2022-10-31T03:43:27;39.13;;;19.60;;
41514;SDS011;27247;48.020;16.720;2022-10-31T03:47:42;30.45;;;16.13;;
41514;SDS011;27247;48.020;16.720;2022-10-31T03:56:13;28.55;;;15.48;;
41514;SDS011;27247;48.020;16.720;2022-10-31T04:00:32;25.50;;;13.85;;
41514;SDS011;27247;48.020;16.720;2022-10-31T04:04:44;25.70;;;15.02;;
41514;SDS011;27247;48.020;16.720;2022-10-31T04:08:58;25.88;;;13.45;;
41514;SDS011;27247;48.020;16.720;2022-10-31T04:13:13;32.67;;;17.35;;
41514;SDS011;27247;48.020;16.720;2022-10-31T04:17:27;35.13;;;17.55;;
41514;SDS011;27247;48.020;16.720;2022-10-31T04:21:41;30.13;;;16.20;;
41514;SDS011;27247;48.020;16.720;2022-10-31T04:25:54;32.22;;;16.98;;
41514;SDS011;27247;48.020;16.720;2022-10-31T04:30:05;23.95;;;13.23;;
41514;SDS011;27247;48.020;16.720;2022-10-31T04:34:16;22.92;;;12.73;;
41514;SDS011;27247;48.020;16.720;2022-10-31T04:38:26;22.80;;;12.93;;
41514;SDS011;27247;48.020;16.720;2022-10-31T04:42:37;27.20;;;12.70;;
41514;SDS011;27247;48.020;16.720;2022-10-31T04:46:47;25.05;;;12.40;;
41514;SDS011;27247;48.020;16.720;2022-10-31T04:50:58;26.77;;;13.55;;
41514;SDS011;27247;48.020;16.720;2022-10-31T04:55:13;20.85;;;12.13;;
41514;SDS011;27247;48.020;16.720;2022-10-31T04:59:23;23.77;;;12.27;;
41514;SDS011;27247;48.020;16.720;2022-10-31T05:03:34;24.50;;;13.00;;
41514;SDS011;27247;48.020;16.720;2022-10-31T05:07:45;21.83;;;12.43;;
41514;SDS011;27247;48.020;16.720;2022-10-31T05:11:56;18.80;;;11.27;;
41514;SDS011;27247;48.020;16.720;2022-10-31T05:16:07;19.30;;;10.27;;
41514;SDS011;27247;48.020;16.720;2022-10-31T05:20:18;16.00;;;10.00;;
41514;SDS011;27247;48.020;16.720;2022-10-31T05:24:30;18.20;;;10.07;;
41514;SDS011;27247;48.020;16.720;2022-10-31T05:28:40;20.80;;;12.17;;
41514;SDS011;27247;48.020;16.720;2022-10-31T05:32:51;18.70;;;11.07;;
41514;SDS011;27247;48.020;16.720;2022-10-31T05:37:02;20.30;;;11.85;;
41514;SDS011;27247;48.020;16.720;2022-10-31T05:41:12;17.90;;;10.33;;
41514;SDS011;27247;48.020;16.720;2022-10-31T05:45:22;21.25;;;12.48;;
41514;SDS011;27247;48.020;16.720;2022-10-31T05:49:33;19.98;;;11.88;;
41514;SDS011;27247;48.020;16.720;2022-10-31T05:53:45;20.47;;;12.03;;
41514;SDS011;27247;48.020;16.720;2022-10-31T05:57:56;20.83;;;12.32;;
41514;SDS011;27247;48.020;16.720;2022-10-31T06:02:07;22.15;;;12.10;;
41514;SDS011;27247;48.020;16.720;2022-10-31T06:06:17;23.38;;;13.50;;
41514;SDS011;27247;48.020;16.720;2022-10-31T06:10:27;20.93;;;12.57;;
41514;SDS011;27247;48.020;16.720;2022-10-31T06:14:38;24.08;;;12.43;;
41514;SDS011;27247;48.020;16.720;2022-10-31T06:18:48;21.90;;;12.15;;
41514;SDS011;27247;48.020;16.720;2022-10-31T06:22:58;26.95;;;15.38;;
41514;SDS011;27247;48.020;16.720;2022-10-31T06:27:09;26.65;;;14.77;;
41514;SDS011;27247;48.020;16.720;2022-10-31T06:31:19;26.70;;;15.93;;
41514;SDS011;27247;48.020;16.720;2022-10-31T06:35:30;26.30;;;15.67;;
41514;SDS011;27247;48.020;16.720;2022-10-31T06:39:42;28.58;;;15.73;;
41514;SDS011;27247;48.020;16.720;2022-10-31T06:43:53;28.35;;;16.15;;
41514;SDS011;27247;48.020;16.720;2022-10-31T06:48:03;25.83;;;15.67;;
41514;SDS011;27247;48.020;16.720;2022-10-31T06:52:19;29.98;;;16.38;;
41514;SDS011;27247;48.020;16.720;2022-10-31T06:56:30;38.15;;;19.67;;
41514;SDS011;27247;48.020;16.720;2022-10-31T07:00:40;33.83;;;18.55;;
41514;SDS011;27247;48.020;16.720;2022-10-31T07:04:51;31.37;;;17.77;;
41514;SDS011;27247;48.020;16.720;2022-10-31T07:09:03;34.53;;;18.53;;
41514;SDS011;27247;48.020;16.720;2022-10-31T07:13:14;29.00;;;16.50;;
41514;SDS011;27247;48.020;16.720;2022-10-31T07:17:24;37.15;;;18.70;;
41514;SDS011;27247;48.020;16.720;2022-10-31T07:21:36;37.97;;;19.15;;
41514;SDS011;27247;48.020;16.720;2022-10-31T07:25:46;29.70;;;16.30;;
41514;SDS011;27247;48.020;16.720;2022-10-31T07:29:56;34.70;;;17.98;;
41514;SDS011;27247;48.020;16.720;2022-10-31T07:34:07;32.37;;;16.07;;
41514;SDS011;27247;48.020;16.720;2022-10-31T07:38:17;33.80;;;15.77;;
41514;SDS011;27247;48.020;16.720;2022-10-31T07:47:01;38.65;;;18.25;;
41514;SDS011;27247;48.020;16.720;2022-10-31T07:51:11;38.72;;;18.73;;
41514;SDS011;27247;48.020;16.720;2022-10-31T07:55:27;45.03;;;20.50;;
41514;SDS011;27247;48.020;16.720;2022-10-31T07:59:38;46.20;;;20.92;;
41514;SDS011;27247;48.020;16.720;2022-10-31T08:03:48;43.10;;;19.45;;
41514;SDS011;27247;48.020;16.720;2022-10-31T08:08:07;39.55;;;22.00;;
41514;SDS011;27247;48.020;16.720;2022-10-31T08:12:18;44.00;;;21.75;;
41514;SDS011;27247;48.020;16.720;2022-10-31T08:16:29;47.70;;;21.20;;
41514;SDS011;27247;48.020;16.720;2022-10-31T08:20:40;43.30;;;21.80;;
41514;SDS011;27247;48.020;16.720;2022-10-31T08:24:52;42.83;;;21.00;;
41514;SDS011;27247;48.020;16.720;2022-10-31T08:29:03;43.67;;;21.40;;
41514;SDS011;27247;48.020;16.720;2022-10-31T08:37:52;36.90;;;18.83;;
41514;SDS011;27247;48.020;16.720;2022-10-31T08:42:04;47.17;;;21.05;;
41514;SDS011;27247;48.020;16.720;2022-10-31T08:46:26;40.85;;;22.55;;
41514;SDS011;27247;48.020;16.720;2022-10-31T08:50:36;43.03;;;19.92;;
41514;SDS011;27247;48.020;16.720;2022-10-31T08:54:48;44.03;;;19.45;;
41514;SDS011;27247;48.020;16.720;2022-10-31T08:58:58;49.17;;;21.00;;
41514;SDS011;27247;48.020;16.720;2022-10-31T09:03:10;44.30;;;20.20;;
41514;SDS011;27247;48.020;16.720;2022-10-31T09:11:54;45.05;;;20.67;;
41514;SDS011;27247;48.020;16.720;2022-10-31T09:16:05;40.07;;;18.93;;
41514;SDS011;27247;48.020;16.720;2022-10-31T09:20:15;33.08;;;16.92;;
41514;SDS011;27247;48.020;16.720;2022-10-31T09:24:26;29.40;;;15.95;;
41514;SDS011;27247;48.020;16.720;2022-10-31T09:28:36;28.75;;;16.17;;
41514;SDS011;27247;48.020;16.720;2022-10-31T09:32:47;32.92;;;16.52;;
41514;SDS011;27247;48.020;16.720;2022-10-31T09:36:57;31.20;;;17.20;;
41514;SDS011;27247;48.020;16.720;2022-10-31T09:41:13;29.65;;;16.25;;
41514;SDS011;27247;48.020;16.720;2022-10-31T09:45:37;34.20;;;17.23;;
41514;SDS011;27247;48.020;16.720;2022-10-31T09:50:11;32.65;;;17.38;;
41514;SDS011;27247;48.020;16.720;2022-10-31T09:59:00;32.30;;;15.80;;
41514;SDS011;27247;48.020;16.720;2022-10-31T10:08:01;33.17;;;16.60;;
41514;SDS011;27247;48.020;16.720;2022-10-31T10:12:24;36.60;;;17.48;;
41514;SDS011;27247;48.020;16.720;2022-10-31T10:21:24;37.20;;;17.98;;
41514;SDS011;27247;48.020;16.720;2022-10-31T10:25:42;45.72;;;21.67;;
41514;SDS011;27247;48.020;16.720;2022-10-31T10:34:35;41.88;;;20.13;;
41514;SDS011;27247;48.020;16.720;2022-10-31T10:43:19;50.85;;;24.10;;
41514;SDS011;27247;48.020;16.720;2022-10-31T10:47:36;56.80;;;26.30;;
41514;SDS011;27247;48.020;16.720;2022-10-31T10:52:06;58.20;;;26.10;;
41514;SDS011;27247;48.020;16.720;2022-10-31T10:56:49;55.33;;;25.63;;
41514;SDS011;27247;48.020;16.720;2022-10-31T11:01:14;62.40;;;27.98;;
41514;SDS011;27247;48.020;16.720;2022-10-31T11:05:28;57.75;;;26.42;;
41514;SDS011;27247;48.020;16.720;2022-10-31T11:09:44;60.20;;;27.48;;
41514;SDS011;27247;48.020;16.720;2022-10-31T11:14:00;64.93;;;27.63;;
41514;SDS011;27247;48.020;16.720;2022-10-31T11:18:22;67.82;;;28.92;;
41514;SDS011;27247;48.020;16.720;2022-10-31T11:22:34;51.35;;;25.20;;
41514;SDS011;27247;48.020;16.720;2022-10-31T11:26:46;59.47;;;25.60;;
41514;SDS011;27247;48.020;16.720;2022-10-31T11:30:58;59.45;;;27.52;;
41514;SDS011;27247;48.020;16.720;2022-10-31T11:35:10;58.90;;;27.73;;
41514;SDS011;27247;48.020;16.720;2022-10-31T11:39:26;60.17;;;25.33;;
41514;SDS011;27247;48.020;16.720;2022-10-31T11:43:37;67.20;;;29.30;;
41514;SDS011;27247;48.020;16.720;2022-10-31T11:47:49;67.72;;;29.13;;
41514;SDS011;27247;48.020;16.720;2022-10-31T11:52:02;63.97;;;28.45;;
41514;SDS011;27247;48.020;16.720;2022-10-31T11:56:22;65.22;;;29.67;;
41514;SDS011;27247;48.020;16.720;2022-10-31T12:00:35;72.32;;;31.23;;
41514;SDS011;27247;48.020;16.720;2022-10-31T12:04:52;72.95;;;31.73;;
41514;SDS011;27247;48.020;16.720;2022-10-31T12:18:24;68.18;;;30.52;;
41514;SDS011;27247;48.020;16.720;2022-10-31T12:23:04;69.47;;;30.45;;
41514;SDS011;27247;48.020;16.720;2022-10-31T12:32:00;70.80;;;31.85;;
41514;SDS011;27247;48.020;16.720;2022-10-31T12:40:59;70.32;;;32.05;;
41514;SDS011;27247;48.020;16.720;2022-10-31T12:58:35;70.53;;;33.03;;
41514;SDS011;27247;48.020;16.720;2022-10-31T13:07:10;68.97;;;32.17;;
41514;SDS011;27247;48.020;16.720;2022-10-31T13:11:27;59.22;;;31.27;;
41514;SDS011;27247;48.020;16.720;2022-10-31T13:15:54;62.03;;;30.40;;
41514;SDS011;27247;48.020;16.720;2022-10-31T13:24:27;61.20;;;29.83;;
41514;SDS011;27247;48.020;16.720;2022-10-31T13:28:48;59.97;;;31.48;;
41514;SDS011;27247;48.020;16.720;2022-10-31T13:33:43;57.78;;;28.55;;
41514;SDS011;27247;48.020;16.720;2022-10-31T13:46:36;50.45;;;26.50;;
41514;SDS011;27247;48.020;16.720;2022-10-31T13:50:57;54.40;;;28.30;;
41514;SDS011;27247;48.020;16.720;2022-10-31T14:04:44;56.80;;;26.85;;
41514;SDS011;27247;48.020;16.720;2022-10-31T14:08:58;43.58;;;21.52;;
41514;SDS011;27247;48.020;16.720;2022-10-31T14:13:29;44.65;;;22.65;;
41514;SDS011;27247;48.020;16.720;2022-10-31T14:17:51;47.92;;;23.50;;
41514;SDS011;27247;48.020;16.720;2022-10-31T14:22:22;41.40;;;22.63;;
41514;SDS011;27247;48.020;16.720;2022-10-31T14:26:34;38.67;;;21.05;;
41514;SDS011;27247;48.020;16.720;2022-10-31T14:30:53;40.40;;;22.20;;
41514;SDS011;27247;48.020;16.720;2022-10-31T14:35:09;43.28;;;21.85;;
41514;SDS011;27247;48.020;16.720;2022-10-31T14:39:31;46.80;;;24.08;;
41514;SDS011;27247;48.020;16.720;2022-10-31T14:52:44;47.40;;;24.02;;
41514;SDS011;27247;48.020;16.720;2022-10-31T14:57:01;44.38;;;21.27;;
41514;SDS011;27247;48.020;16.720;2022-10-31T15:01:20;49.67;;;24.50;;
41514;SDS011;27247;48.020;16.720;2022-10-31T15:05:34;55.95;;;25.35;;
41514;SDS011;27247;48.020;16.720;2022-10-31T15:10:36;55.58;;;26.13;;
41514;SDS011;27247;48.020;16.720;2022-10-31T15:14:31;46.83;;;23.73;;
41514;SDS011;27247;48.020;16.720;2022-10-31T15:23:29;55.65;;;24.35;;
41514;SDS011;27247;48.020;16.720;2022-10-31T15:27:41;49.17;;;22.75;;
41514;SDS011;27247;48.020;16.720;2022-10-31T15:31:52;54.30;;;24.23;;
41514;SDS011;27247;48.020;16.720;2022-10-31T15:36:28;54.97;;;25.33;;
41514;SDS011;27247;48.020;16.720;2022-10-31T15:40:38;46.85;;;22.63;;
41514;SDS011;27247;48.020;16.720;2022-10-31T15:44:52;45.28;;;23.05;;
41514;SDS011;27247;48.020;16.720;2022-10-31T15:49:28;49.08;;;22.55;;
41514;SDS011;27247;48.020;16.720;2022-10-31T15:58:09;53.50;;;23.48;;
41514;SDS011;27247;48.020;16.720;2022-10-31T16:02:23;54.30;;;26.15;;
41514;SDS011;27247;48.020;16.720;2022-10-31T16:06:35;62.75;;;24.13;;
41514;SDS011;27247;48.020;16.720;2022-10-31T16:10:45;55.20;;;24.48;;
41514;SDS011;27247;48.020;16.720;2022-10-31T16:14:56;49.55;;;24.40;;
41514;SDS011;27247;48.020;16.720;2022-10-31T16:19:11;52.88;;;24.33;;
41514;SDS011;27247;48.020;16.720;2022-10-31T16:23:27;42.75;;;22.10;;
41514;SDS011;27247;48.020;16.720;2022-10-31T16:27:38;49.00;;;24.80;;
41514;SDS011;27247;48.020;16.720;2022-10-31T16:31:49;44.72;;;21.55;;
41514;SDS011;27247;48.020;16.720;2022-10-31T16:35:59;34.83;;;18.13;;
41514;SDS011;27247;48.020;16.720;2022-10-31T16:40:12;36.30;;;19.13;;
41514;SDS011;27247;48.020;16.720;2022-10-31T16:44:24;38.20;;;19.45;;
41514;SDS011;27247;48.020;16.720;2022-10-31T16:48:36;35.60;;;20.73;;
41514;SDS011;27247;48.020;16.720;2022-10-31T16:52:46;36.67;;;21.05;;
41514;SDS011;27247;48.020;16.720;2022-10-31T16:57:00;33.60;;;19.00;;
41514;SDS011;27247;48.020;16.720;2022-10-31T17:01:12;33.45;;;19.00;;
41514;SDS011;27247;48.020;16.720;2022-10-31T17:05:23;33.35;;;18.13;;
41514;SDS011;27247;48.020;16.720;2022-10-31T17:09:39;34.13;;;19.15;;
41514;SDS011;27247;48.020;16.720;2022-10-31T17:13:49;40.93;;;19.47;;
41514;SDS011;27247;48.020;16.720;2022-10-31T17:18:00;36.95;;;19.88;;
41514;SDS011;27247;48.020;16.720;2022-10-31T17:22:11;36.20;;;20.75;;
41514;SDS011;27247;48.020;16.720;2022-10-31T17:26:23;40.70;;;19.83;;
41514;SDS011;27247;48.020;16.720;2022-10-31T17:30:33;33.93;;;19.50;;
